Time;durP1;ratioP1;P1;durP2;ratioP2;P2;SDS_P1;SDS_P2;PMS_P1;PMS_P2;Temp;Humidity;BMP_temperature;BMP_pressure;BME280_temperature;BME280_humidity;BME280_pressure;Samples;Min_cycle;Max_cycle;Signal;HPM_P1;HPM_P2
2022/10/20 00:01:06;;;;;;;13.75;5.03;;;7.70;99.90;;;;;;4951905;28;176350;-69
2022/10/20 00:03:32;;;;;;;16.92;5.07;;;7.70;99.90;;;;;;4964486;28;20064;-70
2022/10/20 00:06:10;;;;;;;12.02;4.88;;;7.70;99.90;;;;;;4948121;28;204431;-70
2022/10/20 00:08:37;;;;;;;19.80;5.30;;;7.70;99.90;;;;;;5016273;28;20075;-70
2022/10/20 00:11:03;;;;;;;13.15;5.13;;;7.70;99.90;;;;;;4981085;28;62516;-70
2022/10/20 00:13:29;;;;;;;15.35;5.30;;;7.70;99.90;;;;;;5005236;28;20060;-71
2022/10/20 00:15:58;;;;;;;13.93;4.95;;;7.60;99.90;;;;;;4972469;28;154703;-70
2022/10/20 00:18:25;;;;;;;11.70;4.75;;;7.60;99.90;;;;;;5020169;28;20128;-71
2022/10/20 00:20:52;;;;;;;11.32;4.97;;;7.60;99.90;;;;;;4974488;28;149873;-70
2022/10/20 00:23:18;;;;;;;13.02;5.07;;;7.60;99.90;;;;;;5028285;28;20037;-70
2022/10/20 00:25:44;;;;;;;16.40;5.03;;;7.60;99.90;;;;;;4967080;28;214188;-70
2022/10/20 00:28:10;;;;;;;16.38;5.30;;;7.60;99.90;;;;;;5001629;28;20068;-68
2022/10/20 00:30:38;;;;;;;17.80;5.05;;;7.50;99.90;;;;;;4973691;28;207953;-70
2022/10/20 00:33:05;;;;;;;16.55;5.10;;;7.50;99.90;;;;;;5024414;28;20422;-69
2022/10/20 00:35:32;;;;;;;12.57;5.00;;;7.50;99.90;;;;;;5004101;28;201925;-69
2022/10/20 00:37:59;;;;;;;13.13;5.10;;;7.50;99.90;;;;;;4971790;28;20064;-69
2022/10/20 00:40:25;;;;;;;15.05;5.18;;;7.40;99.90;;;;;;5003761;28;20053;-71
2022/10/20 00:42:51;;;;;;;19.08;5.30;;;7.40;99.90;;;;;;4975635;28;107362;-70
2022/10/20 00:45:20;;;;;;;16.60;4.88;;;7.40;99.90;;;;;;5020374;28;20053;-70
2022/10/20 00:47:51;;;;;;;15.20;4.82;;;7.40;99.90;;;;;;4954246;28;209515;-70
2022/10/20 00:50:28;;;;;;;17.67;5.07;;;7.40;99.90;;;;;;5000771;28;20077;-70
2022/10/20 00:52:55;;;;;;;14.70;5.00;;;7.30;99.90;;;;;;4964987;28;209185;-70
2022/10/20 00:55:27;;;;;;;13.30;4.70;;;7.30;99.90;;;;;;5025863;28;20069;-69
2022/10/20 00:57:56;;;;;;;13.88;5.38;;;7.30;99.90;;;;;;4955851;28;188494;-70
2022/10/20 01:00:23;;;;;;;12.65;5.07;;;7.30;99.90;;;;;;5021459;28;20080;-69
2022/10/20 01:02:53;;;;;;;13.40;4.97;;;7.30;99.90;;;;;;4956743;28;188095;-70
2022/10/20 01:05:19;;;;;;;14.40;5.03;;;7.30;99.90;;;;;;5018951;28;20518;-70
2022/10/20 01:07:45;;;;;;;14.15;5.03;;;7.20;99.90;;;;;;4942850;28;99458;-70
2022/10/20 01:10:13;;;;;;;18.35;4.80;;;7.20;99.90;;;;;;5020711;28;20053;-70
2022/10/20 01:13:01;;;;;;;15.35;4.80;;;7.20;99.90;;;;;;4975645;28;161211;-70
2022/10/20 01:15:34;;;;;;;14.60;5.15;;;7.20;99.90;;;;;;4998418;28;224734;-70
2022/10/20 01:18:05;;;;;;;13.45;5.22;;;7.20;99.90;;;;;;4967333;28;208976;-71
2022/10/20 01:20:59;;;;;;;14.10;5.32;;;7.20;99.90;;;;;;5009712;28;214973;-71
2022/10/20 01:23:56;;;;;;;12.38;5.35;;;7.20;99.90;;;;;;4981089;28;20060;-69
2022/10/20 01:27:00;;;;;;;14.15;5.28;;;7.10;99.90;;;;;;4971138;28;217333;-69
2022/10/20 01:29:33;;;;;;;13.02;5.05;;;7.10;99.90;;;;;;5000782;28;20395;-69
2022/10/20 01:32:08;;;;;;;12.13;5.15;;;7.00;99.90;;;;;;4976740;28;131789;-71
2022/10/20 01:34:56;;;;;;;13.85;5.50;;;7.00;99.90;;;;;;5004585;28;20053;-70
2022/10/20 01:37:44;;;;;;;13.27;4.90;;;7.00;99.90;;;;;;4968791;28;208990;-70
2022/10/20 01:40:19;;;;;;;13.20;4.82;;;7.00;99.90;;;;;;4991991;28;20073;-70
2022/10/20 01:42:47;;;;;;;13.73;5.47;;;6.90;99.90;;;;;;4941107;28;210572;-70
2022/10/20 01:45:16;;;;;;;14.75;5.45;;;6.90;99.90;;;;;;5007686;28;20795;-69
2022/10/20 01:47:44;;;;;;;20.23;5.60;;;6.90;99.90;;;;;;4960882;28;206705;-69
2022/10/20 01:50:11;;;;;;;13.73;5.60;;;6.90;99.90;;;;;;5023074;28;20049;-70
2022/10/20 01:52:38;;;;;;;11.25;5.10;;;6.90;99.90;;;;;;4938368;28;171404;-69
2022/10/20 01:55:15;;;;;;;14.93;5.50;;;6.90;99.90;;;;;;5020968;28;20056;-71
2022/10/20 01:58:17;;;;;;;13.80;5.35;;;6.80;99.90;;;;;;4959427;28;185412;-70
2022/10/20 02:00:44;;;;;;;15.27;5.53;;;6.80;99.90;;;;;;4953312;28;216210;-69
2022/10/20 02:03:38;;;;;;;15.88;5.57;;;6.70;99.90;;;;;;4997095;28;20053;-70
2022/10/20 02:06:34;;;;;;;16.70;6.05;;;6.70;99.90;;;;;;4918361;28;206186;-70
2022/10/20 02:09:07;;;;;;;13.15;5.68;;;6.70;99.90;;;;;;4948080;28;20065;-71
2022/10/20 02:11:47;;;;;;;13.77;5.93;;;6.70;99.90;;;;;;4908165;28;187731;-71
2022/10/20 02:14:16;;;;;;;16.45;6.18;;;6.70;99.90;;;;;;4953220;28;20061;-71
2022/10/20 02:16:48;;;;;;;13.52;6.03;;;6.70;99.90;;;;;;4914392;28;223311;-71
2022/10/20 02:19:18;;;;;;;13.55;6.07;;;6.60;99.90;;;;;;4975708;28;20050;-71
2022/10/20 02:21:46;;;;;;;14.25;6.50;;;6.70;99.90;;;;;;4899322;28;207446;-70
2022/10/20 02:24:14;;;;;;;13.75;5.88;;;6.60;99.90;;;;;;4953014;28;20049;-70
2022/10/20 02:26:41;;;;;;;16.27;6.10;;;6.60;99.90;;;;;;4913267;28;210984;-69
2022/10/20 02:29:24;;;;;;;12.25;5.93;;;6.60;99.90;;;;;;4961560;28;20121;-70
2022/10/20 02:31:50;;;;;;;14.27;6.28;;;6.60;99.90;;;;;;4923028;28;213894;-70
2022/10/20 02:34:16;;;;;;;16.88;6.38;;;6.60;99.90;;;;;;4936582;28;20081;-71
2022/10/20 02:36:43;;;;;;;15.38;5.90;;;6.60;99.90;;;;;;4914223;28;206670;-71
2022/10/20 02:39:10;;;;;;;16.00;6.28;;;6.60;99.90;;;;;;4962075;28;20054;-70
2022/10/20 02:41:37;;;;;;;14.23;6.35;;;6.60;99.90;;;;;;4895037;28;207330;-70
2022/10/20 02:44:03;;;;;;;17.27;6.40;;;6.60;99.90;;;;;;5035023;28;20450;-71
2022/10/20 02:46:29;;;;;;;16.13;6.38;;;6.60;99.90;;;;;;4970878;28;228664;-71
2022/10/20 02:48:55;;;;;;;15.70;6.50;;;6.60;99.90;;;;;;5047367;28;20049;-68
2022/10/20 02:51:21;;;;;;;12.38;6.35;;;6.60;99.90;;;;;;4980991;28;199013;-70
2022/10/20 02:53:48;;;;;;;11.85;6.28;;;6.60;99.90;;;;;;5030445;28;20053;-69
2022/10/20 02:56:14;;;;;;;13.32;6.13;;;6.60;99.90;;;;;;4974547;28;187144;-70
2022/10/20 02:58:41;;;;;;;15.48;6.65;;;6.60;99.90;;;;;;5024679;28;20121;-70
2022/10/20 03:01:07;;;;;;;13.15;6.63;;;6.60;99.90;;;;;;4961952;28;207538;-70
2022/10/20 03:03:33;;;;;;;17.33;7.35;;;6.60;99.90;;;;;;5020441;28;20045;-70
2022/10/20 03:06:10;;;;;;;15.70;7.57;;;6.60;99.90;;;;;;4966306;28;177117;-70
2022/10/20 03:08:36;;;;;;;15.48;7.35;;;6.60;99.90;;;;;;5010328;28;20054;-70
2022/10/20 03:11:03;;;;;;;12.93;7.20;;;6.60;99.90;;;;;;4967230;28;148255;-70
2022/10/20 03:13:29;;;;;;;16.42;7.28;;;6.60;99.90;;;;;;5033158;28;20053;-70
2022/10/20 03:15:55;;;;;;;12.73;7.35;;;6.60;99.90;;;;;;4971247;28;204257;-70
2022/10/20 03:18:21;;;;;;;15.18;7.72;;;6.60;99.90;;;;;;5004611;28;20053;-70
2022/10/20 03:20:51;;;;;;;16.33;7.28;;;6.60;99.90;;;;;;4968774;28;209644;-70
2022/10/20 03:23:18;;;;;;;14.70;7.50;;;6.60;99.90;;;;;;5000664;28;20415;-70
2022/10/20 03:25:44;;;;;;;15.18;7.57;;;6.60;99.90;;;;;;4969638;28;207856;-70
2022/10/20 03:28:11;;;;;;;15.43;7.78;;;6.60;99.90;;;;;;5037849;28;20061;-71
2022/10/20 03:30:37;;;;;;;16.80;8.10;;;6.60;99.90;;;;;;4974593;28;208132;-70
2022/10/20 03:33:03;;;;;;;20.35;8.52;;;6.60;99.90;;;;;;5004335;28;20511;-70
2022/10/20 03:35:29;;;;;;;15.90;7.90;;;6.60;99.90;;;;;;4999338;28;211061;-70
2022/10/20 03:37:55;;;;;;;16.35;8.38;;;6.60;99.90;;;;;;4984052;28;132576;-70
2022/10/20 03:40:21;;;;;;;15.15;8.20;;;6.60;99.90;;;;;;5022389;28;20523;-70
2022/10/20 03:42:48;;;;;;;18.30;8.98;;;6.60;99.90;;;;;;4958494;28;163088;-70
2022/10/20 03:45:14;;;;;;;14.95;8.65;;;6.60;99.90;;;;;;5018548;28;20072;-70
2022/10/20 03:47:40;;;;;;;16.73;8.65;;;6.60;99.90;;;;;;4990734;28;194928;-70
2022/10/20 03:50:07;;;;;;;17.02;8.95;;;6.60;99.90;;;;;;5022542;28;20045;-70
2022/10/20 03:52:33;;;;;;;16.40;8.95;;;6.60;99.90;;;;;;4959983;28;182117;-70
2022/10/20 03:54:59;;;;;;;17.25;9.23;;;6.60;99.90;;;;;;5024292;28;20744;-70
2022/10/20 03:57:25;;;;;;;17.92;9.85;;;6.60;99.90;;;;;;4979572;28;155158;-70
2022/10/20 03:59:51;;;;;;;21.33;9.38;;;6.60;99.90;;;;;;5018557;28;20903;-70
2022/10/20 04:02:37;;;;;;;17.45;9.70;;;6.60;99.90;;;;;;4985987;28;209584;-70
2022/10/20 04:05:05;;;;;;;17.63;9.63;;;6.60;99.90;;;;;;5020870;28;20400;-70
2022/10/20 04:07:31;;;;;;;16.98;9.50;;;6.60;99.90;;;;;;4969728;28;228458;-70
2022/10/20 04:09:57;;;;;;;16.83;10.27;;;6.60;99.90;;;;;;5002961;28;20057;-69
2022/10/20 04:12:24;;;;;;;19.30;10.35;;;6.60;99.90;;;;;;4976369;28;205974;-70
2022/10/20 04:14:50;;;;;;;15.65;10.05;;;6.60;99.90;;;;;;5005445;28;20045;-69
2022/10/20 04:17:16;;;;;;;19.85;10.00;;;6.60;99.90;;;;;;4994542;28;203996;-70
2022/10/20 04:19:42;;;;;;;18.13;10.05;;;6.60;99.90;;;;;;5020009;28;20057;-68
2022/10/20 04:22:09;;;;;;;20.42;10.73;;;6.60;99.90;;;;;;4959177;28;142089;-69
2022/10/20 04:24:35;;;;;;;19.95;10.45;;;6.60;99.90;;;;;;5020340;28;20053;-69
2022/10/20 04:27:01;;;;;;;18.95;11.52;;;6.60;99.90;;;;;;4989899;28;121421;-69
2022/10/20 04:29:27;;;;;;;18.00;10.70;;;6.70;99.90;;;;;;5026410;28;20058;-69
2022/10/20 04:31:53;;;;;;;18.67;11.07;;;6.60;99.90;;;;;;4950516;28;248450;-69
2022/10/20 04:34:20;;;;;;;16.75;10.52;;;6.70;99.90;;;;;;5006087;28;20053;-71
2022/10/20 04:36:46;;;;;;;19.00;10.65;;;6.60;99.90;;;;;;4970590;28;207846;-70
2022/10/20 04:39:13;;;;;;;17.02;11.18;;;6.70;99.90;;;;;;5009614;28;20426;-70
2022/10/20 04:41:39;;;;;;;17.70;10.90;;;6.60;99.90;;;;;;4958323;28;136335;-72
2022/10/20 04:44:05;;;;;;;19.17;11.68;;;6.60;99.90;;;;;;5023626;28;20106;-71
2022/10/20 04:46:31;;;;;;;17.13;10.20;;;6.60;99.90;;;;;;4961003;28;198804;-71
2022/10/20 04:48:57;;;;;;;17.85;11.25;;;6.70;99.90;;;;;;5014541;28;20049;-70
2022/10/20 04:51:23;;;;;;;21.88;11.80;;;6.70;99.90;;;;;;4976650;28;145973;-71
2022/10/20 04:53:49;;;;;;;21.95;11.13;;;6.60;99.90;;;;;;5024975;28;20414;-71
2022/10/20 04:56:18;;;;;;;20.05;11.32;;;6.60;99.90;;;;;;4952351;28;213157;-70
2022/10/20 04:58:53;;;;;;;20.50;11.75;;;6.60;99.90;;;;;;4990585;28;20060;-72
2022/10/20 05:01:20;;;;;;;20.08;12.05;;;6.60;99.90;;;;;;4964418;28;85072;-70
2022/10/20 05:03:46;;;;;;;18.42;11.07;;;6.60;99.90;;;;;;5016070;28;20048;-71
2022/10/20 05:06:14;;;;;;;21.15;12.13;;;6.60;99.90;;;;;;4961612;28;165271;-70
2022/10/20 05:08:42;;;;;;;18.30;11.52;;;6.60;99.90;;;;;;5021252;28;20053;-71
2022/10/20 05:11:10;;;;;;;20.55;12.18;;;6.60;99.90;;;;;;4969261;28;208522;-70
2022/10/20 05:13:36;;;;;;;22.25;12.02;;;6.60;99.90;;;;;;5019325;28;20056;-71
2022/10/20 05:16:03;;;;;;;21.10;12.32;;;6.60;99.90;;;;;;4978352;28;121517;-72
2022/10/20 05:18:30;;;;;;;20.45;11.43;;;6.60;99.90;;;;;;5013704;28;20054;-71
2022/10/20 05:20:56;;;;;;;22.17;13.52;;;6.60;99.90;;;;;;4976506;28;210122;-70
2022/10/20 05:23:23;;;;;;;21.42;13.27;;;6.60;99.90;;;;;;5020088;28;20049;-69
2022/10/20 05:25:49;;;;;;;21.92;13.70;;;6.50;99.90;;;;;;4972214;28;207954;-70
2022/10/20 05:28:15;;;;;;;19.25;12.68;;;6.50;99.90;;;;;;5028022;28;20029;-70
2022/10/20 05:30:41;;;;;;;19.75;13.20;;;6.50;99.90;;;;;;4972423;28;210009;-70
2022/10/20 05:33:08;;;;;;;21.80;13.60;;;6.50;99.90;;;;;;5051662;28;20042;-69
2022/10/20 05:35:35;;;;;;;20.48;13.93;;;6.50;99.90;;;;;;4986570;28;230737;-70
2022/10/20 05:38:01;;;;;;;22.90;13.60;;;6.50;99.90;;;;;;4980309;28;20048;-70
2022/10/20 05:40:27;;;;;;;17.33;12.52;;;6.50;99.90;;;;;;5011550;28;208942;-70
2022/10/20 05:42:53;;;;;;;18.08;13.23;;;6.50;99.90;;;;;;4951535;28;172620;-70
2022/10/20 05:45:19;;;;;;;20.40;13.32;;;6.40;99.90;;;;;;5006006;28;20046;-71
2022/10/20 05:47:45;;;;;;;22.83;14.00;;;6.40;99.90;;;;;;4985201;28;22989;-70
2022/10/20 05:50:11;;;;;;;21.17;14.10;;;6.40;99.90;;;;;;5018221;28;20041;-71
2022/10/20 05:52:38;;;;;;;21.98;13.30;;;6.50;99.90;;;;;;4984447;28;32323;-70
2022/10/20 05:55:04;;;;;;;22.02;13.60;;;6.40;99.90;;;;;;5022964;28;20053;-71
2022/10/20 05:57:30;;;;;;;21.88;13.55;;;6.40;99.90;;;;;;4968909;28;167576;-69
2022/10/20 05:59:56;;;;;;;19.73;14.38;;;6.40;99.90;;;;;;5025072;28;20057;-71
2022/10/20 06:02:22;;;;;;;20.42;13.93;;;6.40;99.90;;;;;;4962100;28;142986;-71
2022/10/20 06:04:48;;;;;;;22.23;14.77;;;6.40;99.90;;;;;;5020567;28;20053;-71
2022/10/20 06:07:14;;;;;;;20.17;14.57;;;6.40;99.90;;;;;;4975931;28;151727;-72
2022/10/20 06:09:41;;;;;;;21.98;14.90;;;6.40;99.90;;;;;;5025044;28;20068;-72
2022/10/20 06:12:07;;;;;;;25.65;14.93;;;6.40;99.90;;;;;;4988777;28;205857;-70
2022/10/20 06:14:33;;;;;;;20.75;15.20;;;6.40;99.90;;;;;;5029460;28;20057;-70
2022/10/20 06:16:59;;;;;;;19.45;13.43;;;6.40;99.90;;;;;;4976916;28;207137;-71
2022/10/20 06:19:25;;;;;;;23.70;14.98;;;6.40;99.90;;;;;;5021773;28;20427;-71
2022/10/20 06:21:52;;;;;;;20.55;13.93;;;6.50;99.90;;;;;;4975135;28;153769;-70
2022/10/20 06:24:18;;;;;;;22.02;15.05;;;6.50;99.90;;;;;;5025023;28;20046;-72
2022/10/20 06:26:45;;;;;;;26.90;14.80;;;6.50;99.90;;;;;;4976447;28;143356;-70
2022/10/20 06:29:16;;;;;;;26.25;15.02;;;6.50;99.90;;;;;;5024969;28;20057;-71
2022/10/20 06:31:45;;;;;;;22.17;15.00;;;6.50;99.90;;;;;;4988145;28;154735;-71
2022/10/20 06:34:20;;;;;;;22.85;15.68;;;6.60;99.90;;;;;;5027546;28;20499;-71
2022/10/20 06:36:47;;;;;;;20.42;15.02;;;6.50;99.90;;;;;;4976898;28;221575;-70
2022/10/20 06:39:19;;;;;;;24.40;16.38;;;6.60;99.90;;;;;;5022457;28;20065;-72
2022/10/20 06:41:49;;;;;;;21.20;14.32;;;6.60;99.90;;;;;;4970642;28;209232;-72
2022/10/20 06:44:17;;;;;;;22.60;14.70;;;6.60;99.90;;;;;;5013397;28;20056;-71
2022/10/20 06:46:43;;;;;;;22.10;15.45;;;6.70;99.90;;;;;;4978111;28;208441;-71
2022/10/20 06:49:10;;;;;;;22.67;15.18;;;6.70;99.90;;;;;;5022374;28;20511;-71
2022/10/20 06:51:36;;;;;;;25.15;15.60;;;6.80;99.90;;;;;;4980405;28;213096;-71
2022/10/20 06:54:04;;;;;;;22.92;14.82;;;6.80;99.90;;;;;;5024961;28;20484;-71
2022/10/20 06:56:32;;;;;;;23.38;15.18;;;6.80;99.90;;;;;;4981861;28;151847;-72
2022/10/20 06:58:59;;;;;;;21.20;15.23;;;6.90;99.90;;;;;;5015625;28;20061;-70
2022/10/20 07:01:27;;;;;;;20.40;14.30;;;6.90;99.90;;;;;;4955470;28;220929;-70
2022/10/20 07:03:56;;;;;;;23.20;14.73;;;7.00;99.90;;;;;;5015868;28;20053;-70
2022/10/20 07:06:33;;;;;;;23.08;14.85;;;7.00;99.90;;;;;;4956087;28;198752;-70
2022/10/20 07:09:02;;;;;;;20.98;14.25;;;7.10;99.90;;;;;;5012216;28;20050;-71
2022/10/20 07:11:29;;;;;;;20.08;13.70;;;7.10;99.90;;;;;;4980080;28;164158;-70
2022/10/20 07:14:00;;;;;;;21.77;14.98;;;7.20;99.90;;;;;;5031223;28;20056;-71
2022/10/20 07:16:30;;;;;;;22.23;15.00;;;7.20;99.90;;;;;;4975051;28;147816;-71
2022/10/20 07:18:57;;;;;;;19.77;13.52;;;7.20;99.90;;;;;;5019345;28;20072;-71
2022/10/20 07:21:26;;;;;;;20.90;13.90;;;7.30;99.90;;;;;;4975693;28;144170;-71
2022/10/20 07:23:55;;;;;;;20.85;14.60;;;7.30;99.90;;;;;;5017677;28;20057;-71
2022/10/20 07:26:24;;;;;;;20.42;13.60;;;7.30;99.90;;;;;;4965154;28;214929;-71
2022/10/20 07:28:52;;;;;;;19.55;13.50;;;7.40;99.90;;;;;;5012749;28;20420;-71
2022/10/20 07:31:22;;;;;;;19.83;14.10;;;7.40;99.90;;;;;;4968392;28;230223;-71
2022/10/20 07:33:48;;;;;;;19.00;13.60;;;7.50;99.90;;;;;;5010541;28;20058;-71
2022/10/20 07:36:23;;;;;;;19.40;13.05;;;7.50;99.90;;;;;;4973750;28;206763;-70
2022/10/20 07:38:51;;;;;;;18.30;13.55;;;7.50;99.90;;;;;;5014782;28;20053;-71
2022/10/20 07:41:17;;;;;;;21.35;13.02;;;7.50;99.90;;;;;;4955343;28;175296;-71
2022/10/20 07:43:43;;;;;;;21.38;12.95;;;7.60;99.90;;;;;;5031569;28;20041;-71
2022/10/20 07:46:11;;;;;;;19.60;13.40;;;7.60;99.90;;;;;;4970932;28;116958;-72
2022/10/20 07:48:38;;;;;;;22.75;13.43;;;7.70;99.90;;;;;;5013261;28;20057;-72
2022/10/20 07:51:25;;;;;;;19.63;13.88;;;7.70;99.90;;;;;;4958537;28;216683;-72
2022/10/20 07:53:54;;;;;;;18.13;12.73;;;7.80;99.90;;;;;;5030224;28;20051;-72
2022/10/20 07:56:20;;;;;;;22.42;13.38;;;7.90;99.90;;;;;;4988148;28;157579;-70
2022/10/20 07:58:47;;;;;;;21.50;12.85;;;7.90;99.90;;;;;;5032756;28;20049;-71
2022/10/20 08:01:16;;;;;;;18.60;13.18;;;8.00;99.90;;;;;;4966415;28;147897;-70
2022/10/20 08:03:42;;;;;;;18.27;12.93;;;8.10;99.90;;;;;;5015692;28;20065;-71
2022/10/20 08:06:09;;;;;;;16.23;12.38;;;8.10;99.90;;;;;;4962075;28;160355;-70
2022/10/20 08:08:35;;;;;;;18.40;12.35;;;8.20;99.90;;;;;;5016632;28;20050;-71
2022/10/20 08:11:01;;;;;;;17.73;12.35;;;8.30;99.90;;;;;;4967193;28;160703;-71
2022/10/20 08:13:28;;;;;;;20.27;12.65;;;8.30;99.90;;;;;;5009060;28;20049;-71
2022/10/20 08:15:54;;;;;;;18.27;11.65;;;8.40;99.90;;;;;;4972120;28;206982;-70
2022/10/20 08:18:21;;;;;;;17.38;11.55;;;8.40;99.90;;;;;;5020112;28;20049;-70
2022/10/20 08:20:47;;;;;;;19.85;11.82;;;8.50;99.90;;;;;;4979752;28;214289;-71
2022/10/20 08:23:14;;;;;;;18.65;11.82;;;8.60;99.90;;;;;;5018042;28;20072;-71
2022/10/20 08:25:40;;;;;;;18.50;11.43;;;8.70;99.90;;;;;;4968997;28;218037;-72
2022/10/20 08:28:06;;;;;;;17.52;10.95;;;8.80;99.90;;;;;;5007640;28;20068;-72
2022/10/20 08:30:33;;;;;;;16.15;11.07;;;8.80;99.90;;;;;;4996394;28;224331;-70
2022/10/20 08:32:59;;;;;;;17.75;11.27;;;8.90;99.90;;;;;;4972163;28;20041;-73
2022/10/20 08:35:26;;;;;;;19.70;10.48;;;9.00;99.90;;;;;;5015677;28;20408;-71
2022/10/20 08:37:52;;;;;;;14.60;10.65;;;9.10;99.90;;;;;;4960066;28;105573;-71
2022/10/20 08:40:24;;;;;;;17.33;10.90;;;9.10;99.90;;;;;;5021905;28;20837;-71
2022/10/20 08:42:51;;;;;;;16.30;10.13;;;9.20;99.90;;;;;;4952425;28;210800;-71
2022/10/20 08:45:21;;;;;;;14.35;10.27;;;9.30;99.90;;;;;;5005063;28;20056;-72
2022/10/20 08:47:51;;;;;;;16.45;10.02;;;9.30;99.90;;;;;;4953229;28;210782;-72
2022/10/20 08:50:18;;;;;;;17.85;9.98;;;9.40;99.90;;;;;;5025506;28;20057;-71
2022/10/20 08:52:46;;;;;;;16.85;9.57;;;9.40;99.90;;;;;;4979837;28;204189;-72
2022/10/20 08:55:21;;;;;;;16.70;9.80;;;9.50;99.90;;;;;;5027238;28;20041;-71
2022/10/20 08:57:48;;;;;;;17.25;9.45;;;9.50;99.90;;;;;;4991145;28;203897;-71
2022/10/20 09:00:19;;;;;;;17.00;10.23;;;9.70;99.90;;;;;;5030016;28;20049;-72
2022/10/20 09:02:47;;;;;;;14.05;9.82;;;9.70;99.90;;;;;;4961333;28;188318;-72
2022/10/20 09:05:21;;;;;;;15.85;10.00;;;9.80;99.90;;;;;;5020197;28;20395;-70
2022/10/20 09:07:50;;;;;;;15.77;9.43;;;9.90;99.90;;;;;;4980518;28;206756;-71
2022/10/20 09:10:35;;;;;;;14.05;9.27;;;10.00;99.90;;;;;;5021162;28;20419;-71
2022/10/20 09:13:05;;;;;;;15.40;9.05;;;10.10;99.90;;;;;;4941727;28;206923;-71
2022/10/20 09:15:32;;;;;;;15.73;8.93;;;10.10;99.90;;;;;;5010593;28;217870;-71
2022/10/20 09:18:03;;;;;;;13.65;8.65;;;10.30;99.90;;;;;;4960228;28;20068;-72
2022/10/20 09:20:32;;;;;;;15.43;9.07;;;10.40;99.90;;;;;;5008023;28;209213;-70
2022/10/20 09:22:59;;;;;;;15.98;8.10;;;10.50;99.90;;;;;;4960054;28;20057;-70
2022/10/20 09:25:26;;;;;;;13.27;8.23;;;10.60;99.90;;;;;;5022912;28;20057;-71
2022/10/20 09:27:55;;;;;;;15.90;8.70;;;10.80;99.90;;;;;;4973586;28;162616;-71
2022/10/20 09:30:24;;;;;;;14.75;8.75;;;10.90;99.90;;;;;;4997701;28;20045;-70
2022/10/20 09:32:51;;;;;;;11.50;7.70;;;11.00;99.90;;;;;;4969789;28;187107;-69
2022/10/20 09:35:22;;;;;;;14.32;8.07;;;11.00;99.90;;;;;;5019916;28;20065;-70
2022/10/20 09:37:52;;;;;;;;;;;11.10;99.90;;;;;;4968279;28;20386;-71
2022/10/20 09:40:18;;;;;;;14.48;7.68;;;11.20;99.90;;;;;;5057861;28;21023;-71
2022/10/20 09:43:08;;;;;;;12.65;7.03;;;11.30;99.90;;;;;;4946034;28;207339;-70
2022/10/20 09:45:36;;;;;;;12.73;7.73;;;11.40;99.90;;;;;;4997502;28;206760;-71
2022/10/20 09:48:16;;;;;;;12.00;7.40;;;11.40;99.90;;;;;;5014077;28;20423;-71
2022/10/20 09:50:48;;;;;;;13.00;7.22;;;11.50;99.90;;;;;;4970935;28;209039;-70
2022/10/20 09:53:18;;;;;;;11.60;6.82;;;11.60;99.90;;;;;;5023466;28;20060;-71
2022/10/20 09:55:47;;;;;;;12.27;7.28;;;11.70;99.90;;;;;;4975612;28;207526;-70
2022/10/20 09:58:25;;;;;;;13.35;7.25;;;11.80;99.90;;;;;;5003782;28;20057;-71
2022/10/20 10:01:00;;;;;;;13.32;7.70;;;11.90;99.90;;;;;;4966532;28;209336;-70
2022/10/20 10:03:27;;;;;;;11.55;6.90;;;12.00;99.90;;;;;;4996274;28;20064;-71
2022/10/20 10:05:59;;;;;;;14.40;7.22;;;12.20;99.90;;;;;;4974137;28;151663;-71
2022/10/20 10:08:39;;;;;;;11.77;6.80;;;12.20;99.90;;;;;;5050511;28;20119;-71
2022/10/20 10:11:15;;;;;;;11.57;6.53;;;12.30;99.90;;;;;;4965778;28;207579;-71
2022/10/20 10:13:43;;;;;;;13.98;6.88;;;12.30;99.90;;;;;;5019723;28;20057;-70
2022/10/20 10:16:14;;;;;;;12.27;6.78;;;12.40;99.90;;;;;;4976210;28;207159;-70
2022/10/20 10:18:42;;;;;;;12.63;6.43;;;12.50;99.90;;;;;;5031337;28;20517;-71
2022/10/20 10:21:12;;;;;;;14.07;6.60;;;12.60;99.90;;;;;;4960162;28;214002;-70
2022/10/20 10:24:00;;;;;;;14.95;6.30;;;12.60;99.90;;;;;;5009320;28;20053;-70
2022/10/20 10:26:52;;;;;;;13.00;6.10;;;12.70;99.90;;;;;;4993708;28;207334;-70
2022/10/20 10:29:24;;;;;;;15.05;6.68;;;12.70;99.90;;;;;;5027926;28;20057;-71
2022/10/20 10:31:58;;;;;;;13.05;6.30;;;12.80;99.90;;;;;;4978509;28;217834;-70
2022/10/20 10:34:55;;;;;;;10.82;6.20;;;12.80;99.90;;;;;;5011667;28;20056;-71
2022/10/20 10:37:21;;;;;;;12.60;6.03;;;12.80;99.90;;;;;;4980251;28;150449;-72
2022/10/20 10:39:48;;;;;;;14.30;6.85;;;12.90;99.90;;;;;;5025490;28;20076;-71
2022/10/20 10:42:22;;;;;;;11.07;6.60;;;13.00;99.90;;;;;;4959223;28;243161;-70
2022/10/20 10:45:34;;;;;;;11.98;5.75;;;13.10;99.90;;;;;;5002375;28;20045;-70
2022/10/20 10:48:31;;;;;;;12.70;5.82;;;13.30;99.90;;;;;;4958063;28;206965;-73
2022/10/20 10:51:00;;;;;;;12.38;6.50;;;13.50;99.90;;;;;;4965099;28;206762;-71
2022/10/20 10:53:32;;;;;;;13.02;6.53;;;13.60;99.90;;;;;;5038068;28;20061;-72
2022/10/20 10:55:58;;;;;;;11.57;6.10;;;13.80;99.90;;;;;;4972341;28;207503;-72
2022/10/20 10:58:34;;;;;;;13.00;6.88;;;13.90;99.90;;;;;;5021451;28;20057;-71
2022/10/20 11:01:17;;;;;;;12.32;6.03;;;14.10;99.90;;;;;;4968206;28;230011;-72
2022/10/20 11:04:12;;;;;;;12.00;6.00;;;14.20;99.90;;;;;;5039977;28;20038;-71
2022/10/20 11:06:46;;;;;;;12.43;6.45;;;14.40;99.90;;;;;;4957729;28;206577;-70
2022/10/20 11:09:15;;;;;;;11.93;6.57;;;14.40;99.90;;;;;;5008171;28;20053;-70
2022/10/20 11:11:58;;;;;;;11.75;6.28;;;14.60;99.90;;;;;;4940123;28;206822;-70
2022/10/20 11:14:36;;;;;;;11.68;6.00;;;14.70;99.90;;;;;;5025572;28;20064;-70
2022/10/20 11:17:39;;;;;;;12.77;5.80;;;14.70;99.90;;;;;;4945775;28;210012;-70
2022/10/20 11:20:14;;;;;;;13.32;6.15;;;14.80;99.90;;;;;;5020205;28;20049;-71
2022/10/20 11:22:58;;;;;;;11.63;5.72;;;14.80;99.90;;;;;;4945306;28;217558;-71
2022/10/20 11:25:38;;;;;;;11.68;6.13;;;14.80;99.90;;;;;;5007323;28;20053;-70
2022/10/20 11:28:18;;;;;;;15.15;5.85;;;14.80;99.90;;;;;;4951581;28;206756;-70
2022/10/20 11:30:44;;;;;;;12.50;6.00;;;14.80;99.90;;;;;;4986581;28;175335;-70
2022/10/20 11:33:15;;;;;;;9.23;5.70;;;14.80;99.90;;;;;;5004302;28;20525;-70
2022/10/20 11:35:52;;;;;;;;;;;14.80;99.90;;;;;;4946117;28;207941;-69
2022/10/20 11:38:31;;;;;;;16.65;5.97;;;14.70;99.90;;;;;;5032600;28;19921;-70
2022/10/20 11:41:26;;;;;;;11.95;6.47;;;14.80;99.90;;;;;;4960495;28;206214;-70
2022/10/20 11:44:00;;;;;;;11.18;6.13;;;14.80;99.90;;;;;;5016399;28;20065;-70
2022/10/20 11:46:46;;;;;;;13.40;5.90;;;14.80;99.90;;;;;;4974757;28;192932;-70
2022/10/20 11:49:12;;;;;;;11.30;6.15;;;14.80;99.90;;;;;;5018522;28;20707;-70
2022/10/20 11:51:48;;;;;;;11.68;5.97;;;14.70;99.90;;;;;;4970866;28;208997;-70
2022/10/20 11:54:23;;;;;;;11.32;6.35;;;14.80;99.90;;;;;;5016173;28;20060;-70
2022/10/20 11:57:10;;;;;;;12.80;6.50;;;14.70;99.90;;;;;;4952536;28;215439;-70
2022/10/20 11:59:49;;;;;;;12.13;6.00;;;14.60;99.90;;;;;;5001468;28;20064;-69
2022/10/20 12:02:45;;;;;;;12.05;6.85;;;14.60;99.90;;;;;;4955289;28;206621;-69
2022/10/20 12:05:27;;;;;;;10.90;6.20;;;14.50;99.90;;;;;;5017486;28;20046;-70
2022/10/20 12:07:56;;;;;;;;;;;14.40;99.90;;;;;;4955406;28;207316;-70
2022/10/20 12:10:36;;;;;;;11.05;6.72;;;14.40;99.90;;;;;;5019991;28;19921;-70
2022/10/20 12:13:23;;;;;;;11.55;6.35;;;14.30;99.90;;;;;;4950806;28;206645;-69
2022/10/20 12:15:51;;;;;;;11.68;6.68;;;14.30;99.90;;;;;;4969389;28;209404;-70
2022/10/20 12:18:27;;;;;;;13.57;6.72;;;14.20;99.90;;;;;;5010096;28;20049;-69
2022/10/20 12:21:00;;;;;;;12.80;6.70;;;14.10;99.90;;;;;;4967986;28;178701;-72
2022/10/20 12:23:56;;;;;;;14.02;7.22;;;14.10;99.90;;;;;;5028857;28;20394;-70
2022/10/20 12:26:28;;;;;;;11.55;7.00;;;14.00;99.90;;;;;;4960900;28;219034;-69
2022/10/20 12:28:56;;;;;;;14.18;7.63;;;13.90;99.90;;;;;;5044412;28;20053;-69
2022/10/20 12:31:22;;;;;;;15.48;7.57;;;13.90;99.90;;;;;;4963611;28;194152;-73
2022/10/20 12:33:48;;;;;;;13.23;7.90;;;13.80;99.90;;;;;;5014900;28;20418;-70
2022/10/20 12:36:17;;;;;;;13.15;8.10;;;13.70;99.90;;;;;;4966098;28;208524;-70
2022/10/20 12:38:49;;;;;;;14.07;8.05;;;13.60;99.90;;;;;;5029427;28;20687;-71
2022/10/20 12:41:32;;;;;;;13.35;8.23;;;13.50;99.90;;;;;;4975887;28;208024;-70
2022/10/20 12:44:03;;;;;;;15.90;8.50;;;13.50;99.90;;;;;;5001536;28;20057;-71
2022/10/20 12:46:32;;;;;;;16.70;8.20;;;13.40;99.90;;;;;;4971717;28;187427;-71
2022/10/20 12:49:05;;;;;;;15.18;8.30;;;13.40;99.90;;;;;;5018221;28;20049;-71
2022/10/20 12:51:50;;;;;;;16.10;8.85;;;13.30;99.90;;;;;;4973387;28;207799;-72
2022/10/20 12:54:40;;;;;;;19.05;9.02;;;13.30;99.90;;;;;;5018209;28;20061;-71